createdAt,value
2022-08-20T00:02:21.199Z,100183.64
2022-08-20T00:04:54.043Z,100183.10
2022-08-20T00:07:26.405Z,100171.05
2022-08-20T00:09:58.629Z,100179.33
2022-08-20T00:12:31.507Z,100182.13
2022-08-20T00:15:05.819Z,100190.56
2022-08-20T00:17:40.544Z,100199.80
2022-08-20T00:20:16.070Z,100208.16
2022-08-20T00:22:48.571Z,100209.99
2022-08-20T00:25:21.182Z,100215.33
2022-08-20T00:27:53.432Z,100215.78
2022-08-20T00:30:27.653Z,100217.04
2022-08-20T00:33:02.670Z,100218.11
2022-08-20T00:35:37.255Z,100220.34
2022-08-20T00:38:09.380Z,100221.34
2022-08-20T00:40:45.990Z,100220.41
2022-08-20T00:43:34.966Z,100223.78
2022-08-20T00:46:10.575Z,100224.44
2022-08-20T00:48:47.866Z,100212.48
2022-08-20T00:51:29.979Z,100221.25
2022-08-20T00:54:07.265Z,100201.34
2022-08-20T00:56:40.819Z,100225.83
2022-08-20T00:59:17.903Z,100230.13
2022-08-20T01:01:55.889Z,100231.36
2022-08-20T01:04:30.109Z,100235.86
2022-08-20T01:07:05.420Z,100239.85
2022-08-20T01:09:58.081Z,100228.70
2022-08-20T01:12:32.882Z,100227.28
2022-08-20T01:15:11.643Z,100241.63
2022-08-20T01:17:49.429Z,100236.52
2022-08-20T01:20:25.427Z,100226.36
2022-08-20T01:23:23.642Z,100236.48
2022-08-20T01:26:00.488Z,100232.63
2022-08-20T01:28:39.609Z,100237.23
2022-08-20T01:31:14.746Z,100242.23
2022-08-20T01:33:47.945Z,100238.48
2022-08-20T01:36:23.240Z,100230.38
2022-08-20T01:38:55.809Z,100226.84
2022-08-20T01:41:40.959Z,100225.66
2022-08-20T01:44:16.984Z,100224.75
2022-08-20T01:46:53.806Z,100229.17
2022-08-20T01:49:32.608Z,100227.63
2022-08-20T01:52:08.055Z,100224.97
2022-08-20T01:54:40.996Z,100218.17
2022-08-20T01:57:19.937Z,100223.67
2022-08-20T01:59:53.234Z,100217.56
2022-08-20T02:02:27.053Z,100204.48
2022-08-20T02:05:00.903Z,100201.11
2022-08-20T02:07:33.526Z,100211.80
2022-08-20T02:10:07.833Z,100211.91
2022-08-20T02:12:40.789Z,100212.31
2022-08-20T02:15:13.943Z,100210.77
2022-08-20T02:17:46.117Z,100214.68
2022-08-20T02:20:23.745Z,100216.20
2022-08-20T02:22:59.249Z,100219.58
2022-08-20T02:25:35.317Z,100220.14
2022-08-20T02:28:11.233Z,100215.57
2022-08-20T02:30:47.051Z,100212.21
2022-08-20T02:33:24.258Z,100213.63
2022-08-20T02:35:57.846Z,100212.46
2022-08-20T02:38:29.904Z,100212.56
2022-08-20T02:41:02.368Z,100209.08
2022-08-20T02:43:34.691Z,100207.59
2022-08-20T02:46:07.910Z,100204.42
2022-08-20T02:48:40.588Z,100201.14
2022-08-20T02:51:12.679Z,100194.00
2022-08-20T02:53:44.800Z,100171.27
2022-08-20T02:56:17.217Z,100184.35
2022-08-20T02:58:49.343Z,100188.97
2022-08-20T03:01:21.479Z,100185.77
2022-08-20T03:03:57.167Z,100181.63
2022-08-20T03:06:29.715Z,100163.54
2022-08-20T03:09:04.653Z,100175.25
2022-08-20T03:11:35.262Z,100172.81
2022-08-20T03:14:07.863Z,100167.91
2022-08-20T03:16:40.007Z,100170.18
2022-08-20T03:19:13.905Z,100168.95
2022-08-20T03:21:46.170Z,100172.02
2022-08-20T03:24:18.342Z,100154.99
2022-08-20T03:26:51.549Z,100160.10
2022-08-20T03:29:24.223Z,100160.81
2022-08-20T03:31:57.313Z,100157.49
2022-08-20T03:34:29.387Z,100155.52
2022-08-20T03:37:01.678Z,100151.43
2022-08-20T03:39:33.951Z,100155.16
2022-08-20T03:42:06.875Z,100160.31
2022-08-20T03:44:39.244Z,100161.80
2022-08-20T03:47:11.809Z,100167.90
2022-08-20T03:49:43.960Z,100167.06
2022-08-20T03:52:16.725Z,100171.09
2022-08-20T03:54:50.032Z,100172.11
2022-08-20T03:57:29.293Z,100174.73
2022-08-20T04:00:02.489Z,100169.63
2022-08-20T04:02:43.798Z,100173.23
2022-08-20T04:05:15.902Z,100171.46
2022-08-20T04:07:49.265Z,100171.23
2022-08-20T04:10:22.113Z,100164.57
2022-08-20T04:13:15.347Z,100160.33
2022-08-20T04:15:50.149Z,100158.86
2022-08-20T04:18:24.189Z,100152.56
2022-08-20T04:20:59.529Z,100149.79
2022-08-20T04:23:33.330Z,100148.80
2022-08-20T04:26:06.069Z,100146.27
2022-08-20T04:28:38.385Z,100149.36
2022-08-20T04:31:13.019Z,100152.36
2022-08-20T04:33:45.530Z,100143.27
2022-08-20T04:36:17.664Z,100151.95
2022-08-20T04:38:51.127Z,100149.86
2022-08-20T04:41:24.763Z,100149.08
2022-08-20T04:43:58.368Z,100151.03
2022-08-20T04:46:35.232Z,100155.57
2022-08-20T04:49:08.510Z,100153.79
2022-08-20T04:51:40.795Z,100158.94
2022-08-20T04:54:14.490Z,100163.91
2022-08-20T04:56:48.401Z,100163.73
2022-08-20T04:59:20.716Z,100169.73
2022-08-20T05:01:52.826Z,100177.83
2022-08-20T05:04:27.692Z,100179.80
2022-08-20T05:07:00.405Z,100164.05
2022-08-20T05:09:44.053Z,100186.20
2022-08-20T05:12:18.240Z,100193.44
2022-08-20T05:14:50.570Z,100198.98
2022-08-20T05:17:23.944Z,100202.80
2022-08-20T05:20:00.311Z,100203.41
2022-08-20T05:22:32.905Z,100184.04
2022-08-20T05:25:06.245Z,100200.46
2022-08-20T05:27:39.775Z,100197.10
2022-08-20T05:30:14.457Z,100197.41
2022-08-20T05:32:47.447Z,100200.73
2022-08-20T05:35:19.641Z,100202.89
2022-08-20T05:37:51.837Z,100193.21
2022-08-20T05:40:25.783Z,100189.78
2022-08-20T05:42:58.437Z,100209.98
2022-08-20T05:45:34.906Z,100212.05
2022-08-20T05:48:10.732Z,100211.36
2022-08-20T05:50:45.960Z,100215.77
2022-08-20T05:53:19.176Z,100217.31
2022-08-20T05:55:51.613Z,100199.02
2022-08-20T05:58:25.777Z,100210.88
2022-08-20T06:00:59.072Z,100215.67
2022-08-20T06:03:48.830Z,100217.34
2022-08-20T06:06:45.021Z,100221.15
2022-08-20T06:09:13.338Z,100223.95
2022-08-20T06:11:45.863Z,100231.31
2022-08-20T06:14:19.181Z,100236.46
2022-08-20T06:16:58.007Z,100245.36
2022-08-20T06:19:32.365Z,100250.65
2022-08-20T06:22:19.423Z,100248.66
2022-08-20T06:24:59.197Z,100248.09
2022-08-20T06:27:34.216Z,100246.64
2022-08-20T06:30:10.190Z,100242.14
2022-08-20T06:32:42.701Z,100245.92
2022-08-20T06:35:19.904Z,100246.44
2022-08-20T06:37:53.028Z,100249.70
2022-08-20T06:40:28.692Z,100243.93
2022-08-20T06:43:01.440Z,100242.06
2022-08-20T06:45:36.175Z,100240.92
2022-08-20T06:48:08.822Z,100236.75
2022-08-20T06:50:47.058Z,100237.32
2022-08-20T06:53:21.812Z,100236.38
2022-08-20T06:55:56.660Z,100234.85
2022-08-20T06:58:36.333Z,100231.71
2022-08-20T07:01:12.726Z,100225.96
2022-08-20T07:03:55.779Z,100224.10
2022-08-20T07:06:28.728Z,100226.54
2022-08-20T07:09:01.315Z,100228.33
2022-08-20T07:11:35.467Z,100225.34
2022-08-20T07:14:08.490Z,100230.70
2022-08-20T07:16:40.669Z,100229.41
2022-08-20T07:19:13.146Z,100221.99
2022-08-20T07:21:45.412Z,100240.35
2022-08-20T07:24:17.605Z,100242.20
2022-08-20T07:26:51.177Z,100241.49
2022-08-20T07:29:44.331Z,100242.91
2022-08-20T07:32:34.153Z,100229.25
2022-08-20T07:35:14.392Z,100237.48
2022-08-20T07:37:50.175Z,100241.05
2022-08-20T07:40:28.865Z,100240.90
2022-08-20T07:43:03.082Z,100241.42
2022-08-20T07:45:36.489Z,100247.00
2022-08-20T07:48:15.044Z,100255.06
2022-08-20T07:51:03.729Z,100253.81
2022-08-20T07:53:38.115Z,100245.80
2022-08-20T07:56:13.333Z,100245.42
2022-08-20T07:58:50.205Z,100243.27
2022-08-20T08:01:26.240Z,100241.27
2022-08-20T08:03:59.052Z,100243.56
2022-08-20T08:06:33.066Z,100238.89
2022-08-20T08:09:17.617Z,100233.66
2022-08-20T08:11:51.892Z,100228.23
2022-08-20T08:14:29.270Z,100224.70
2022-08-20T08:17:05.446Z,100215.17
2022-08-20T08:19:41.653Z,100232.33
2022-08-20T08:22:16.511Z,100238.73
2022-08-20T08:24:57.404Z,100235.63
2022-08-20T08:27:32.614Z,100238.95
2022-08-20T08:30:05.553Z,100238.79
2022-08-20T08:32:59.348Z,100227.20
2022-08-20T08:35:32.626Z,100245.02
2022-08-20T08:38:05.121Z,100229.91
2022-08-20T08:40:38.905Z,100242.67
2022-08-20T08:43:14.084Z,100248.55
2022-08-20T08:46:01.646Z,100250.54
2022-08-20T08:48:38.320Z,100255.09
2022-08-20T08:51:12.502Z,100251.98
2022-08-20T08:53:48.675Z,100254.55
2022-08-20T08:56:21.655Z,100258.15
2022-08-20T08:58:55.642Z,100256.56
2022-08-20T09:01:53.838Z,100265.35
2022-08-20T09:04:23.055Z,100258.60
2022-08-20T09:06:54.531Z,100266.67
2022-08-20T09:09:31.049Z,100268.84
2022-08-20T09:12:08.991Z,100266.88
2022-08-20T09:14:42.182Z,100256.77
2022-08-20T09:17:14.978Z,100252.65
2022-08-20T09:19:47.361Z,100269.48
2022-08-20T09:22:23.526Z,100269.64
2022-08-20T09:24:56.343Z,100266.61
2022-08-20T09:27:29.017Z,100254.08
2022-08-20T09:30:01.381Z,100265.38
2022-08-20T09:32:33.653Z,100269.30
2022-08-20T09:35:09.542Z,100269.75
2022-08-20T09:37:42.138Z,100266.45
2022-08-20T09:40:15.226Z,100271.32
2022-08-20T09:42:53.827Z,100258.16
2022-08-20T09:45:26.460Z,100273.27
2022-08-20T09:47:58.683Z,100275.33
2022-08-20T09:50:36.260Z,100272.98
2022-08-20T09:53:08.571Z,100265.30
2022-08-20T09:55:43.423Z,100271.05
2022-08-20T09:58:20.114Z,100266.35
2022-08-20T10:00:52.508Z,100252.82
2022-08-20T10:03:25.186Z,100259.67
2022-08-20T10:05:57.647Z,100261.58
2022-08-20T10:08:30.144Z,100245.69
2022-08-20T10:11:02.815Z,100260.63
2022-08-20T10:13:35.473Z,100243.59
2022-08-20T10:16:08.195Z,100259.26
2022-08-20T10:18:40.260Z,100248.06
2022-08-20T10:21:14.174Z,100257.63
2022-08-20T10:23:47.093Z,100230.01
2022-08-20T10:26:19.489Z,100252.90
2022-08-20T10:28:52.141Z,100253.67
2022-08-20T10:31:24.818Z,100253.61
2022-08-20T10:33:57.761Z,100252.52
2022-08-20T10:36:30.337Z,100254.95
2022-08-20T10:39:02.657Z,100258.48
2022-08-20T10:41:38.939Z,100258.15
2022-08-20T10:44:11.759Z,100250.05
2022-08-20T10:46:45.778Z,100257.02
2022-08-20T10:49:17.939Z,100236.52
2022-08-20T10:51:50.550Z,100245.69
2022-08-20T10:54:23.582Z,100241.73
2022-08-20T10:56:55.659Z,100239.48
2022-08-20T10:59:27.959Z,100235.75
2022-08-20T11:02:00.310Z,100237.92
2022-08-20T11:04:32.803Z,100242.75
2022-08-20T11:07:18.527Z,100245.98
2022-08-20T11:09:51.742Z,100237.82
2022-08-20T11:12:25.264Z,100249.32
2022-08-20T11:14:58.344Z,100247.13
2022-08-20T11:17:33.196Z,100251.25
2022-08-20T11:20:12.719Z,100252.66
2022-08-20T11:22:45.244Z,100252.38
2022-08-20T11:25:17.886Z,100251.34
2022-08-20T11:27:52.210Z,100251.45
2022-08-20T11:30:24.789Z,100243.36
2022-08-20T11:32:57.223Z,100250.41
2022-08-20T11:35:48.979Z,100249.81
2022-08-20T11:38:21.836Z,100255.60
2022-08-20T11:40:53.952Z,100253.10
2022-08-20T11:43:26.393Z,100256.77
2022-08-20T11:45:59.172Z,100257.45
2022-08-20T11:48:31.296Z,100254.14
2022-08-20T11:51:04.018Z,100252.62
2022-08-20T11:53:36.439Z,100255.45
2022-08-20T11:56:09.960Z,100252.08
2022-08-20T11:58:46.161Z,100251.48
2022-08-20T12:01:18.658Z,100246.14
2022-08-20T12:03:51.157Z,100245.27
2022-08-20T12:06:23.496Z,100238.50
2022-08-20T12:08:55.601Z,100222.73
2022-08-20T12:11:28.549Z,100232.28
2022-08-20T12:14:00.833Z,100238.38
2022-08-20T12:16:33.608Z,100239.03
2022-08-20T12:19:05.850Z,100238.84
2022-08-20T12:21:37.976Z,100238.31
2022-08-20T12:24:10.670Z,100234.94
2022-08-20T12:26:42.858Z,100233.98
2022-08-20T12:29:14.960Z,100225.08
2022-08-20T12:31:47.621Z,100221.29
2022-08-20T12:34:19.715Z,100216.60
2022-08-20T12:36:51.992Z,100211.48
2022-08-20T12:39:24.059Z,100206.55
2022-08-20T12:41:56.446Z,100197.91
2022-08-20T12:44:28.924Z,100191.39
2022-08-20T12:47:11.598Z,100183.10
2022-08-20T12:49:46.532Z,100200.13
2022-08-20T12:52:20.880Z,100201.19
2022-08-20T12:54:53.914Z,100202.95
2022-08-20T12:57:31.014Z,100197.06
2022-08-20T13:00:08.493Z,100194.65
2022-08-20T13:02:41.317Z,100168.85
2022-08-20T13:05:14.952Z,100183.97
2022-08-20T13:07:47.828Z,100182.09
2022-08-20T13:10:24.329Z,100180.05
2022-08-20T13:12:57.050Z,100184.98
2022-08-20T13:15:30.682Z,100187.38
2022-08-20T13:18:06.140Z,100183.86
2022-08-20T13:20:38.712Z,100190.66
2022-08-20T13:23:11.091Z,100190.23
2022-08-20T13:25:43.446Z,100192.05
2022-08-20T13:28:15.692Z,100172.85
2022-08-20T13:30:47.884Z,100181.52
2022-08-20T13:33:19.935Z,100181.41
2022-08-20T13:35:51.912Z,100183.94
2022-08-20T13:38:24.808Z,100184.00
2022-08-20T13:40:56.917Z,100184.43
2022-08-20T13:43:29.221Z,100186.88
2022-08-20T13:46:01.490Z,100171.10
2022-08-20T13:48:33.799Z,100182.63
2022-08-20T13:51:07.001Z,100184.80
2022-08-20T13:53:39.128Z,100179.71
2022-08-20T13:56:11.707Z,100178.96
2022-08-20T13:58:44.026Z,100173.02
2022-08-20T14:01:16.287Z,100174.05
2022-08-20T14:03:48.775Z,100174.70
2022-08-20T14:06:20.833Z,100170.20
2022-08-20T14:08:53.077Z,100166.73
2022-08-20T14:11:25.351Z,100170.33
2022-08-20T14:13:57.413Z,100165.36
2022-08-20T14:16:32.209Z,100160.55
2022-08-20T14:19:07.337Z,100164.62
2022-08-20T14:21:40.022Z,100163.70
2022-08-20T14:24:12.009Z,100154.14
2022-08-20T14:26:44.647Z,100164.09
2022-08-20T14:29:20.810Z,100165.12
2022-08-20T14:31:52.901Z,100167.72
2022-08-20T14:34:24.914Z,100168.61
2022-08-20T14:36:58.270Z,100172.08
2022-08-20T14:39:30.464Z,100167.23
2022-08-20T14:42:02.990Z,100153.50
2022-08-20T14:44:35.211Z,100163.66
2022-08-20T14:47:21.613Z,100163.92
2022-08-20T14:49:55.493Z,100172.11
2022-08-20T14:52:28.227Z,100168.65
2022-08-20T14:55:00.490Z,100164.24
2022-08-20T14:57:33.405Z,100161.20
2022-08-20T15:00:08.506Z,100158.95
2022-08-20T15:02:40.682Z,100165.27
2022-08-20T15:05:14.381Z,100152.02
2022-08-20T15:07:49.277Z,100181.18
2022-08-20T15:10:27.682Z,100171.40
2022-08-20T15:13:00.144Z,100168.20
2022-08-20T15:15:32.605Z,100177.75
2022-08-20T15:18:05.159Z,100173.35
2022-08-20T15:20:38.401Z,100171.49
2022-08-20T15:23:12.537Z,100191.53
2022-08-20T15:25:44.903Z,100189.84
2022-08-20T15:28:17.555Z,100202.81
2022-08-20T15:30:49.954Z,100211.89
2022-08-20T15:33:22.072Z,100221.40
2022-08-20T15:35:54.803Z,100225.58
2022-08-20T15:38:26.911Z,100232.48
2022-08-20T15:41:01.261Z,100242.13
2022-08-20T15:43:34.772Z,100235.95
2022-08-20T15:46:10.002Z,100227.70
2022-08-20T15:48:46.743Z,100235.95
2022-08-20T15:51:28.332Z,100233.77
2022-08-20T15:54:04.369Z,100252.72
2022-08-20T15:56:48.926Z,100255.27
2022-08-20T15:59:45.630Z,100214.60
2022-08-20T16:02:41.806Z,100214.23
2022-08-20T16:05:21.681Z,100244.46
2022-08-20T16:08:07.543Z,100275.55
2022-08-20T16:10:52.656Z,100272.29
2022-08-20T16:13:33.193Z,100262.93
2022-08-20T16:16:08.209Z,100260.13
2022-08-20T16:18:41.649Z,100270.48
2022-08-20T16:21:18.175Z,100249.98
2022-08-20T16:23:51.034Z,100254.03
2022-08-20T16:26:36.248Z,100253.26
2022-08-20T16:29:13.041Z,100272.81
2022-08-20T16:31:50.778Z,100293.84
2022-08-20T16:34:34.311Z,100303.63
2022-08-20T16:37:23.044Z,100302.86
2022-08-20T16:39:59.771Z,100293.81
2022-08-20T16:42:38.605Z,100285.77
2022-08-20T16:45:18.199Z,100290.86
2022-08-20T16:47:52.177Z,100302.86
2022-08-20T16:50:28.197Z,100311.15
2022-08-20T16:53:00.483Z,100325.06
2022-08-20T16:55:32.773Z,100344.05
2022-08-20T16:58:06.531Z,100356.08
2022-08-20T17:00:44.851Z,100364.11
2022-08-20T17:03:31.502Z,100339.05
2022-08-20T17:06:20.611Z,100352.88
2022-08-20T17:08:53.910Z,100320.36
2022-08-20T17:11:32.643Z,100347.55
2022-08-20T17:14:11.655Z,100335.85
2022-08-20T17:16:48.383Z,100349.00
2022-08-20T17:19:29.201Z,100330.79
2022-08-20T17:22:15.161Z,100350.77
2022-08-20T17:24:54.419Z,100348.62
2022-08-20T17:27:41.019Z,100345.19
2022-08-20T17:30:23.574Z,100343.92
2022-08-20T17:33:00.464Z,100326.65
2022-08-20T17:35:45.342Z,100331.31
2022-08-20T17:38:33.232Z,100331.51
2022-08-20T17:41:16.585Z,100310.60
2022-08-20T17:43:57.571Z,100316.55
2022-08-20T17:46:31.525Z,100337.52
2022-08-20T17:49:08.495Z,100337.85
2022-08-20T17:51:45.935Z,100340.70
2022-08-20T17:54:24.350Z,100339.62
2022-08-20T17:57:00.548Z,100343.81
2022-08-20T18:00:01.465Z,100344.33
2022-08-20T18:02:38.618Z,100340.52
2022-08-20T18:05:21.998Z,100336.27
2022-08-20T18:08:16.035Z,100341.94
2022-08-20T18:10:58.364Z,100330.73
2022-08-20T18:13:48.148Z,100345.41
2022-08-20T18:16:28.488Z,100352.03
2022-08-20T18:19:13.284Z,100361.63
2022-08-20T18:22:09.530Z,100369.77
2022-08-20T18:24:50.840Z,100374.65
2022-08-20T18:27:27.554Z,100377.32
2022-08-20T18:30:01.740Z,100385.50
2022-08-20T18:32:38.547Z,100385.86
2022-08-20T18:35:15.211Z,100388.27
2022-08-20T18:37:49.802Z,100387.79
2022-08-20T18:40:29.324Z,100392.05
2022-08-20T18:43:15.377Z,100395.12
2022-08-20T18:45:47.714Z,100400.40
2022-08-20T18:48:25.805Z,100394.45
2022-08-20T18:50:59.404Z,100389.73
2022-08-20T18:53:35.410Z,100388.23
2022-08-20T18:56:09.744Z,100385.40
2022-08-20T18:59:01.386Z,100385.63
2022-08-20T19:01:37.795Z,100378.84
2022-08-20T19:04:22.593Z,100375.71
2022-08-20T19:07:02.846Z,100373.80
2022-08-20T19:09:54.488Z,100374.41
2022-08-20T19:12:45.216Z,100374.29
2022-08-20T19:15:20.032Z,100372.16
2022-08-20T19:18:04.459Z,100370.69
2022-08-20T19:20:40.530Z,100358.08
2022-08-20T19:23:19.956Z,100365.82
2022-08-20T19:25:57.706Z,100369.48
2022-08-20T19:28:35.956Z,100362.33
2022-08-20T19:31:16.881Z,100372.64
2022-08-20T19:33:51.767Z,100388.05
2022-08-20T19:36:28.294Z,100391.67
2022-08-20T19:39:03.130Z,100376.29
2022-08-20T19:41:47.528Z,100364.98
2022-08-20T19:44:32.255Z,100361.85
2022-08-20T19:47:06.083Z,100366.15
2022-08-20T19:49:47.229Z,100366.20
2022-08-20T19:52:36.388Z,100369.22
2022-08-20T19:55:32.669Z,100367.63
2022-08-20T19:58:26.048Z,100370.56
2022-08-20T20:01:36.027Z,100364.07
2022-08-20T20:04:38.152Z,100360.23
2022-08-20T20:07:23.543Z,100361.70
2022-08-20T20:10:03.920Z,100349.61
2022-08-20T20:12:55.853Z,100347.01
2022-08-20T20:15:52.979Z,100331.34
2022-08-20T20:18:45.518Z,100340.74
2022-08-20T20:21:30.034Z,100343.32
2022-08-20T20:24:30.842Z,100344.34
2022-08-20T20:27:36.088Z,100353.15
2022-08-20T20:30:35.342Z,100354.38
2022-08-20T20:33:44.242Z,100350.52
2022-08-20T20:36:49.210Z,100344.48
2022-08-20T20:40:19.044Z,100342.86
2022-08-20T20:43:18.241Z,100337.64
2022-08-20T20:46:51.803Z,100339.19
2022-08-20T20:49:39.758Z,100333.83
2022-08-20T20:52:39.297Z,100335.41
2022-08-20T20:55:22.704Z,100327.05
2022-08-20T20:57:55.584Z,100325.33
2022-08-20T21:00:31.770Z,100330.40
2022-08-20T21:03:17.116Z,100326.67
2022-08-20T21:06:04.988Z,100330.47
2022-08-20T21:08:37.737Z,100331.45
2022-08-20T21:11:21.443Z,100336.13
2022-08-20T21:14:14.636Z,100334.58
2022-08-20T21:17:10.094Z,100335.42
2022-08-20T21:20:04.912Z,100338.75
2022-08-20T21:22:54.578Z,100339.89
2022-08-20T21:25:39.860Z,100327.93
2022-08-20T21:28:23.894Z,100340.42
2022-08-20T21:31:13.972Z,100335.86
2022-08-20T21:34:11.734Z,100335.61
2022-08-20T21:37:14.985Z,100335.80
2022-08-20T21:40:01.916Z,100332.90
2022-08-20T21:42:44.189Z,100334.63
2022-08-20T21:45:19.575Z,100329.13
2022-08-20T21:47:52.466Z,100333.58
2022-08-20T21:50:26.026Z,100336.89
2022-08-20T21:56:29.961Z,100334.06
2022-08-20T21:59:22.218Z,100336.39
2022-08-20T22:02:26.880Z,100338.51
2022-08-20T22:04:59.821Z,100328.93
2022-08-20T22:07:32.219Z,100338.42
2022-08-20T22:10:04.700Z,100349.14
2022-08-20T22:12:37.259Z,100351.58
2022-08-20T22:15:11.213Z,100348.00
2022-08-20T22:17:43.498Z,100345.96
2022-08-20T22:20:15.816Z,100349.83
2022-08-20T22:22:48.024Z,100353.17
2022-08-20T22:25:20.428Z,100353.52
2022-08-20T22:27:52.572Z,100355.08
2022-08-20T22:30:25.482Z,100358.16
2022-08-20T22:33:01.924Z,100357.88
2022-08-20T22:35:35.212Z,100354.64
2022-08-20T22:38:07.422Z,100354.02
2022-08-20T22:40:39.699Z,100356.58
2022-08-20T22:43:12.914Z,100356.10
2022-08-20T22:45:48.730Z,100354.21
2022-08-20T22:48:22.015Z,100348.33
2022-08-20T22:50:55.303Z,100351.34
2022-08-20T22:53:28.994Z,100335.93
2022-08-20T22:56:02.492Z,100350.94
2022-08-20T22:58:35.228Z,100357.48
2022-08-20T23:01:08.353Z,100364.25
2022-08-20T23:03:40.836Z,100370.06
2022-08-20T23:06:13.751Z,100371.85
2022-08-20T23:08:46.975Z,100374.30
2022-08-20T23:11:19.225Z,100374.27
2022-08-20T23:13:51.396Z,100359.67
2022-08-20T23:16:24.263Z,100377.80
2022-08-20T23:18:56.692Z,100361.09
2022-08-20T23:21:29.230Z,100377.17
2022-08-20T23:24:01.479Z,100378.83
2022-08-20T23:26:33.842Z,100380.46
2022-08-20T23:29:06.083Z,100380.34
2022-08-20T23:31:38.218Z,100382.08
2022-08-20T23:34:10.471Z,100376.38
2022-08-20T23:36:44.032Z,100372.90
2022-08-20T23:39:16.543Z,100370.77
2022-08-20T23:41:48.778Z,100367.45
2022-08-20T23:44:25.480Z,100370.11
2022-08-20T23:47:01.967Z,100371.83
2022-08-20T23:49:34.223Z,100369.13
2022-08-20T23:52:07.136Z,100365.91
2022-08-20T23:54:39.332Z,100365.16
2022-08-20T23:57:12.284Z,100362.10
2022-08-20T23:59:46.836Z,100358.92
